Aeroporto :
LOGIN :

Iscrizione | Disclaimer

   EN    FR    IT 

 










Sommario :    VFR   VFR Marginale   IFR   IFR Intensivo   IFR Molto Intensivo
Visibilità : 
Base nubi : 
>= 8 km
>= 3000ft
5 / 8 km
1000 / 3000 ft
1500m / 5 km
500 / 1000 ft
800 / 1500m
200 / 500 ft
< 800m
< 200 ft
Simboli :   Temporali  Nebbia  Neve Forte  Precipitazioni Forti  Vento > 20 kt
SIGMETs :   Varie  Temporali  Ghiacco  Turbolenza  Onda orograficha  Ceneri Vulcaniche






- Altitudine del aeroporto : 1306 ft
- Codice IATA : ACH


LSZR - Alten Rhein

ULTIMO METAR :
  • 081450Z VRB03KT CAVOK 24/11 Q1018 NOSIG RMK K

METARs OBSOLETI :
  • 081420Z VRB03KT CAVOK 24/11 Q1018 NOSIG RMK K
  • 081350Z AUTO 05003KT 010V140 CAVOK 24/11 Q1018
  • 081320Z 02003KT 340V070 CAVOK 24/12 Q1018 NOSIG RMK J
  • 081250Z 06005KT 010V090 CAVOK 23/13 Q1018 NOSIG RMK I
  • 081220Z 06005KT 010V090 CAVOK 22/12 Q1018 NOSIG RMK I
  • 081150Z AUTO 05005KT 010V090 CAVOK 22/12 Q1018

TAF TAF LSZR
Valido dal 08 a 15 ore il 09 a 00 ore UTC


081425Z 0815/0824 VRB03KT CAVOK
ATIS : +41 71 858 51 66



MetMap, La meteo Aeronautica in un colpo d'occhio ! - Copyright ORBIFLY Dicembre 2007 - Disclaimer

ORBIFLY MET'MAP TEAM :

Programmazione e sviluppo : Alexandra Zaïnal
Concezione : Baudouin d'Aumeries
Aiuto per la programmazione : Marc-Olivier Méhu
Supporto tecnico e logistico : Manuel Goepfert
Aiuto per la traduzione : Arnaldo La Scala

Contatto : metmap@orbifly.com




FONTI E CREDITI :

   NOAA